createdAt,value
2023-03-29T00:00:22.433Z,5.80
2023-03-29T00:03:08.973Z,5.70
2023-03-29T00:06:03.074Z,5.60
2023-03-29T00:08:53.983Z,5.60
2023-03-29T00:11:40.899Z,5.60
2023-03-29T00:14:28.884Z,5.60
2023-03-29T00:17:16.921Z,5.60
2023-03-29T00:20:05.413Z,5.60
2023-03-29T00:22:52.177Z,5.50
2023-03-29T00:25:38.588Z,5.50
2023-03-29T00:28:25.435Z,5.50
2023-03-29T00:31:14.461Z,5.60
2023-03-29T00:34:02.391Z,5.60
2023-03-29T00:36:50.822Z,5.60
2023-03-29T00:39:37.747Z,5.60
2023-03-29T00:42:25.490Z,5.70
2023-03-29T00:45:19.761Z,5.70
2023-03-29T00:48:08.578Z,5.70
2023-03-29T00:50:59.528Z,5.70
2023-03-29T00:53:50.931Z,5.70
2023-03-29T00:56:40.647Z,5.80
2023-03-29T00:59:32.761Z,5.70
2023-03-29T01:02:25.980Z,5.70
2023-03-29T01:05:17.436Z,5.70
2023-03-29T01:08:08.933Z,5.70
2023-03-29T01:11:01.875Z,5.70
2023-03-29T01:13:55.069Z,5.70
2023-03-29T01:16:41.684Z,5.60
2023-03-29T01:19:33.712Z,5.60
2023-03-29T01:22:29.736Z,5.60
2023-03-29T01:25:22.377Z,5.60
2023-03-29T01:28:13.459Z,5.70
2023-03-29T01:31:08.276Z,5.70
2023-03-29T01:34:01.727Z,5.70
2023-03-29T01:36:54.719Z,5.70
2023-03-29T01:39:41.755Z,5.70
2023-03-29T01:42:43.305Z,5.70
2023-03-29T01:45:37.535Z,5.70
2023-03-29T01:48:29.648Z,5.60
2023-03-29T01:51:22.423Z,5.60
2023-03-29T01:54:14.739Z,5.60
2023-03-29T01:57:04.621Z,5.70
2023-03-29T01:59:54.234Z,5.70
2023-03-29T02:02:43.926Z,5.70
2023-03-29T02:05:32.177Z,5.80
2023-03-29T02:08:19.966Z,5.70
2023-03-29T02:11:07.562Z,5.70
2023-03-29T02:13:54.018Z,5.80
2023-03-29T02:16:40.906Z,5.70
2023-03-29T02:19:29.153Z,5.80
2023-03-29T02:22:17.565Z,5.70
2023-03-29T02:25:07.311Z,5.70
2023-03-29T02:27:54.419Z,5.60
2023-03-29T02:30:51.324Z,5.50
2023-03-29T02:33:43.314Z,5.60
2023-03-29T02:36:35.191Z,5.50
2023-03-29T02:39:25.403Z,5.40
2023-03-29T02:42:12.335Z,5.40
2023-03-29T02:45:01.166Z,5.50
2023-03-29T02:47:51.548Z,5.50
2023-03-29T02:50:40.646Z,5.60
2023-03-29T02:53:33.205Z,5.50
2023-03-29T02:56:20.395Z,5.50
2023-03-29T02:59:07.097Z,5.50
2023-03-29T03:01:54.291Z,5.50
2023-03-29T03:04:41.356Z,5.50
2023-03-29T03:07:28.645Z,5.60
2023-03-29T03:10:16.736Z,5.60
2023-03-29T03:13:03.612Z,5.60
2023-03-29T03:15:50.444Z,5.60
2023-03-29T03:18:36.722Z,5.60
2023-03-29T03:21:23.538Z,5.60
2023-03-29T03:24:10.344Z,5.60
2023-03-29T03:26:58.540Z,5.60
2023-03-29T03:29:45.097Z,5.70
2023-03-29T03:32:31.906Z,5.60
2023-03-29T03:35:21.612Z,5.60
2023-03-29T03:38:08.511Z,5.70
2023-03-29T03:40:55.890Z,5.70
2023-03-29T03:43:48.583Z,5.70
2023-03-29T03:46:35.204Z,5.70
2023-03-29T03:49:21.926Z,5.80
2023-03-29T03:52:11.099Z,5.80
2023-03-29T03:54:57.499Z,5.70
2023-03-29T03:57:44.660Z,5.80
2023-03-29T04:00:33.252Z,5.70
2023-03-29T04:03:19.920Z,5.70
2023-03-29T04:06:06.928Z,5.70
2023-03-29T04:08:53.780Z,5.80
2023-03-29T04:11:40.757Z,5.80
2023-03-29T04:14:27.946Z,5.90
2023-03-29T04:17:16.113Z,5.90
2023-03-29T04:20:10.381Z,5.80
2023-03-29T04:22:56.818Z,5.90
2023-03-29T04:25:43.410Z,5.90
2023-03-29T04:28:29.827Z,5.90
2023-03-29T04:31:16.906Z,5.90
2023-03-29T04:34:04.864Z,5.90
2023-03-29T04:36:51.596Z,5.90
2023-03-29T04:39:38.775Z,5.90
2023-03-29T04:42:25.808Z,6.00
2023-03-29T04:45:13.820Z,5.80
2023-03-29T04:48:01.884Z,5.80
2023-03-29T04:50:50.579Z,5.90
2023-03-29T04:53:37.049Z,5.90
2023-03-29T04:56:24.043Z,6.00
2023-03-29T04:59:10.713Z,5.90
2023-03-29T05:01:57.157Z,5.80
2023-03-29T05:04:43.412Z,5.90
2023-03-29T05:07:31.099Z,5.80
2023-03-29T05:10:18.943Z,5.90
2023-03-29T05:13:06.655Z,6.00
2023-03-29T05:15:53.152Z,6.00
2023-03-29T05:18:40.017Z,6.10
2023-03-29T05:21:28.359Z,6.00
2023-03-29T05:24:16.545Z,6.10
2023-03-29T05:27:03.660Z,6.20
2023-03-29T05:29:50.367Z,6.30
2023-03-29T05:32:38.325Z,6.20
2023-03-29T05:35:26.213Z,6.30
2023-03-29T05:38:13.673Z,6.30
2023-03-29T05:41:02.216Z,6.20
2023-03-29T05:43:48.855Z,6.20
2023-03-29T05:46:35.493Z,6.30
2023-03-29T05:49:22.225Z,6.20
2023-03-29T05:52:08.395Z,6.20
2023-03-29T05:54:55.417Z,6.20
2023-03-29T05:57:43.621Z,6.30
2023-03-29T06:00:31.884Z,6.40
2023-03-29T06:03:21.788Z,6.40
2023-03-29T06:06:10.155Z,6.30
2023-03-29T06:08:57.044Z,6.30
2023-03-29T06:11:43.222Z,6.30
2023-03-29T06:14:31.281Z,6.40
2023-03-29T06:17:19.022Z,6.40
2023-03-29T06:20:10.658Z,6.50
2023-03-29T06:22:57.072Z,6.40
2023-03-29T06:25:44.530Z,6.40
2023-03-29T06:28:31.005Z,6.40
2023-03-29T06:31:19.756Z,6.50
2023-03-29T06:34:08.086Z,6.40
2023-03-29T06:36:54.885Z,6.40
2023-03-29T06:39:42.030Z,6.40
2023-03-29T06:42:30.812Z,6.40
2023-03-29T06:45:17.789Z,6.60
2023-03-29T06:48:07.632Z,6.70
2023-03-29T06:50:55.252Z,6.90
2023-03-29T06:53:41.576Z,7.00
2023-03-29T06:56:29.869Z,7.00
2023-03-29T06:59:16.656Z,7.10
2023-03-29T07:02:03.258Z,7.20
2023-03-29T07:04:51.672Z,7.20
2023-03-29T07:07:53.570Z,7.30
2023-03-29T07:10:42.753Z,7.30
2023-03-29T07:13:30.479Z,7.40
2023-03-29T07:16:17.441Z,7.50
2023-03-29T07:19:04.918Z,7.60
2023-03-29T07:21:54.255Z,7.60
2023-03-29T07:24:41.292Z,7.70
2023-03-29T07:27:27.552Z,7.80
2023-03-29T07:30:16.860Z,7.80
2023-03-29T07:33:04.389Z,7.90
2023-03-29T07:35:51.317Z,7.90
2023-03-29T07:38:39.133Z,7.90
2023-03-29T07:41:25.945Z,7.90
2023-03-29T07:44:12.354Z,7.90
2023-03-29T07:46:59.989Z,8.00
2023-03-29T07:49:49.410Z,8.10
2023-03-29T07:52:40.511Z,8.00
2023-03-29T07:55:28.648Z,8.10
2023-03-29T07:58:15.489Z,8.20
2023-03-29T08:01:02.408Z,8.30
2023-03-29T08:03:49.159Z,8.30
2023-03-29T08:06:35.486Z,8.50
2023-03-29T08:12:10.569Z,8.70
2023-03-29T08:14:57.217Z,8.80
2023-03-29T08:17:44.066Z,8.70
2023-03-29T08:20:30.778Z,8.80
2023-03-29T08:23:17.061Z,8.80
2023-03-29T08:26:05.686Z,8.80
2023-03-29T08:28:53.776Z,8.80
2023-03-29T08:31:40.604Z,8.90
2023-03-29T08:34:26.877Z,8.90
2023-03-29T08:37:13.428Z,8.90
2023-03-29T08:40:00.193Z,8.90
2023-03-29T08:43:21.957Z,8.90
2023-03-29T08:46:20.092Z,9.00
2023-03-29T08:49:09.255Z,9.00
2023-03-29T08:52:01.609Z,9.00
2023-03-29T08:54:51.924Z,9.20
2023-03-29T08:57:45.113Z,9.40
2023-03-29T09:00:38.855Z,9.40
2023-03-29T09:03:30.059Z,9.60
2023-03-29T09:06:20.757Z,9.40
2023-03-29T09:09:15.697Z,9.70
2023-03-29T09:12:11.908Z,9.60
2023-03-29T09:15:10.224Z,9.60
2023-03-29T09:18:09.399Z,9.60
2023-03-29T09:21:02.336Z,9.70
2023-03-29T09:24:01.177Z,9.90
2023-03-29T09:26:50.141Z,10.00
2023-03-29T09:29:53.475Z,10.20
2023-03-29T09:32:45.401Z,10.40
2023-03-29T09:35:35.900Z,10.50
2023-03-29T09:38:23.888Z,10.70
2023-03-29T09:41:21.335Z,10.90
2023-03-29T09:44:27.760Z,11.20
2023-03-29T09:47:22.073Z,11.50
2023-03-29T09:50:29.458Z,11.90
2023-03-29T09:53:18.458Z,11.90
2023-03-29T09:56:08.407Z,11.90
2023-03-29T09:58:55.221Z,12.10
2023-03-29T10:01:45.289Z,12.20
2023-03-29T10:04:32.481Z,12.20
2023-03-29T10:07:21.020Z,12.10
2023-03-29T10:10:10.384Z,12.10
2023-03-29T10:13:02.601Z,12.00
2023-03-29T10:15:59.192Z,12.10
2023-03-29T10:18:45.599Z,12.20
2023-03-29T10:21:33.029Z,12.20
2023-03-29T10:24:23.571Z,12.00
2023-03-29T10:27:12.607Z,12.00
2023-03-29T10:30:02.235Z,11.90
2023-03-29T10:32:57.951Z,11.90
2023-03-29T10:35:45.405Z,12.00
2023-03-29T10:38:32.087Z,12.20
2023-03-29T10:41:21.662Z,12.40
2023-03-29T10:44:08.434Z,12.80
2023-03-29T10:46:56.378Z,13.20
2023-03-29T10:49:45.147Z,13.00
2023-03-29T10:52:31.544Z,13.00
2023-03-29T10:55:19.505Z,13.20
2023-03-29T10:58:17.669Z,13.40
2023-03-29T11:01:05.719Z,13.50
2023-03-29T11:04:08.724Z,13.30
2023-03-29T11:07:12.129Z,13.60
2023-03-29T11:10:07.471Z,13.70
2023-03-29T11:13:03.030Z,13.50
2023-03-29T11:16:03.191Z,13.40
2023-03-29T11:19:06.949Z,13.30
2023-03-29T11:22:00.634Z,13.30
2023-03-29T11:25:08.000Z,13.20
2023-03-29T11:28:02.106Z,13.50
2023-03-29T11:30:54.387Z,13.60
2023-03-29T11:33:54.226Z,13.70
2023-03-29T11:36:53.733Z,13.70
2023-03-29T11:39:49.107Z,13.70
2023-03-29T11:42:40.168Z,13.80
2023-03-29T11:45:32.371Z,13.70
2023-03-29T11:48:23.537Z,13.80
2023-03-29T11:51:17.676Z,14.00
2023-03-29T11:54:14.080Z,14.30
2023-03-29T11:57:06.869Z,14.20
2023-03-29T12:00:01.820Z,14.20
2023-03-29T12:02:56.727Z,14.10
2023-03-29T12:05:48.828Z,14.10
2023-03-29T12:08:39.251Z,14.20
2023-03-29T12:11:34.410Z,14.00
2023-03-29T12:14:27.974Z,14.00
2023-03-29T12:17:19.035Z,14.00
2023-03-29T12:20:13.297Z,14.10
2023-03-29T12:23:00.671Z,14.10
2023-03-29T12:25:57.166Z,13.90
2023-03-29T12:29:10.876Z,14.00
2023-03-29T12:32:06.716Z,13.90
2023-03-29T12:35:07.317Z,13.80
2023-03-29T12:38:05.164Z,13.80
2023-03-29T12:41:00.646Z,13.70
2023-03-29T12:43:48.508Z,13.90
2023-03-29T12:46:36.751Z,13.90
2023-03-29T12:49:31.373Z,14.10
2023-03-29T12:52:27.457Z,14.10
2023-03-29T12:55:31.173Z,14.20
2023-03-29T12:58:43.476Z,14.30
2023-03-29T13:01:32.583Z,14.60
2023-03-29T13:04:37.655Z,14.50
2023-03-29T13:07:33.801Z,14.50
2023-03-29T13:10:40.655Z,14.50
2023-03-29T13:13:30.768Z,14.50
2023-03-29T13:16:19.747Z,14.40
2023-03-29T13:19:20.728Z,14.50
2023-03-29T13:22:23.536Z,14.50
2023-03-29T13:25:31.696Z,14.60
2023-03-29T13:28:24.154Z,14.80
2023-03-29T13:31:27.182Z,14.70
2023-03-29T13:34:25.646Z,14.70
2023-03-29T13:37:29.516Z,14.80
2023-03-29T13:40:33.062Z,14.80
2023-03-29T13:43:30.788Z,14.70
2023-03-29T13:46:23.967Z,14.90
2023-03-29T13:49:19.723Z,15.20
2023-03-29T13:52:16.252Z,15.20
2023-03-29T13:55:08.549Z,15.20
2023-03-29T13:58:00.467Z,15.40
2023-03-29T14:00:50.823Z,15.30
2023-03-29T14:03:44.733Z,15.40
2023-03-29T14:06:36.480Z,15.40
2023-03-29T14:09:25.976Z,15.50
2023-03-29T14:12:15.629Z,15.40
2023-03-29T14:15:04.814Z,15.50
2023-03-29T14:17:55.158Z,15.30
2023-03-29T14:20:45.010Z,15.10
2023-03-29T14:23:36.500Z,15.00
2023-03-29T14:26:27.161Z,14.90
2023-03-29T14:29:15.719Z,14.90
2023-03-29T14:32:11.115Z,15.00
2023-03-29T14:34:58.706Z,15.10
2023-03-29T14:37:47.117Z,15.00
2023-03-29T14:40:34.763Z,14.90
2023-03-29T14:43:24.006Z,14.90
2023-03-29T14:46:13.792Z,14.70
2023-03-29T14:49:01.038Z,14.60
2023-03-29T14:51:48.152Z,14.50
2023-03-29T14:54:36.101Z,14.40
2023-03-29T14:57:25.250Z,14.40
2023-03-29T15:00:27.843Z,14.30
2023-03-29T15:03:16.997Z,14.30
2023-03-29T15:06:05.771Z,14.30
2023-03-29T15:09:04.386Z,14.40
2023-03-29T15:11:55.070Z,14.30
2023-03-29T15:14:42.502Z,14.40
2023-03-29T15:17:43.163Z,14.40
2023-03-29T15:20:40.727Z,14.50
2023-03-29T15:23:27.537Z,14.60
2023-03-29T15:26:15.809Z,14.50
2023-03-29T15:29:08.132Z,14.50
2023-03-29T15:31:59.152Z,14.50
2023-03-29T15:34:46.010Z,14.50
2023-03-29T15:37:33.938Z,14.40
2023-03-29T15:40:24.307Z,14.30
2023-03-29T15:43:11.616Z,14.20
2023-03-29T15:46:00.174Z,14.00
2023-03-29T15:48:46.761Z,13.90
2023-03-29T15:51:33.040Z,13.80
2023-03-29T15:54:21.732Z,13.80
2023-03-29T15:57:13.251Z,13.70
2023-03-29T16:00:00.135Z,13.60
2023-03-29T16:02:46.853Z,13.50
2023-03-29T16:05:33.334Z,13.40
2023-03-29T16:08:21.579Z,13.40
2023-03-29T16:11:11.579Z,13.30
2023-03-29T16:13:58.668Z,13.20
2023-03-29T16:16:45.350Z,13.30
2023-03-29T16:19:33.675Z,13.20
2023-03-29T16:22:20.077Z,13.20
2023-03-29T16:25:13.651Z,13.20
2023-03-29T16:28:01.557Z,13.10
2023-03-29T16:30:48.292Z,13.10
2023-03-29T16:33:34.614Z,13.10
2023-03-29T16:36:21.154Z,13.10
2023-03-29T16:39:07.878Z,13.10
2023-03-29T16:41:54.311Z,13.10
2023-03-29T16:44:42.008Z,13.00
2023-03-29T16:47:28.464Z,13.10
2023-03-29T16:50:17.952Z,13.00
2023-03-29T16:53:04.466Z,13.00
2023-03-29T16:55:51.127Z,13.00
2023-03-29T16:58:40.824Z,13.00
2023-03-29T17:01:29.078Z,13.00
2023-03-29T17:04:15.614Z,12.90
2023-03-29T17:07:02.109Z,12.80
2023-03-29T17:09:48.618Z,12.80
2023-03-29T17:12:35.320Z,12.80
2023-03-29T17:15:22.131Z,12.80
2023-03-29T17:18:10.094Z,12.70
2023-03-29T17:20:58.482Z,12.70
2023-03-29T17:23:47.103Z,12.70
2023-03-29T17:26:33.401Z,12.70
2023-03-29T17:29:19.830Z,12.60
2023-03-29T17:32:06.574Z,12.60
2023-03-29T17:34:54.680Z,12.50
2023-03-29T17:37:41.884Z,12.50
2023-03-29T17:40:28.548Z,12.40
2023-03-29T17:43:15.138Z,12.40
2023-03-29T17:46:01.869Z,12.30
2023-03-29T17:48:50.617Z,12.30
2023-03-29T17:51:38.236Z,12.30
2023-03-29T17:54:24.612Z,12.20
2023-03-29T17:57:11.026Z,12.30
2023-03-29T17:59:57.494Z,12.20
2023-03-29T18:02:47.036Z,12.10
2023-03-29T18:05:36.491Z,12.00
2023-03-29T18:08:24.348Z,12.00
2023-03-29T18:11:15.519Z,12.00
2023-03-29T18:14:01.987Z,12.00
2023-03-29T18:16:48.672Z,12.10
2023-03-29T18:19:35.340Z,12.00
2023-03-29T18:22:23.960Z,12.00
2023-03-29T18:25:12.099Z,11.90
2023-03-29T18:27:58.609Z,11.90
2023-03-29T18:30:45.357Z,12.00
2023-03-29T18:33:35.218Z,12.00
2023-03-29T18:36:21.879Z,12.10
2023-03-29T18:39:09.089Z,12.10
2023-03-29T18:41:56.803Z,12.10
2023-03-29T18:44:43.328Z,12.10
2023-03-29T18:47:29.895Z,12.10
2023-03-29T18:50:16.265Z,12.10
2023-03-29T18:53:02.843Z,12.10
2023-03-29T18:55:49.674Z,11.90
2023-03-29T18:58:37.687Z,11.90
2023-03-29T19:01:24.303Z,11.80
2023-03-29T19:04:11.028Z,11.80
2023-03-29T19:06:57.437Z,11.70
2023-03-29T19:09:43.689Z,11.90
2023-03-29T19:12:30.363Z,11.80
2023-03-29T19:15:18.510Z,11.90
2023-03-29T19:18:05.413Z,11.90
2023-03-29T19:20:53.758Z,12.00
2023-03-29T19:23:40.215Z,12.00
2023-03-29T19:26:26.914Z,12.00
2023-03-29T19:29:13.680Z,12.00
2023-03-29T19:32:01.753Z,12.00
2023-03-29T19:34:48.541Z,12.00
2023-03-29T19:37:34.904Z,11.90
2023-03-29T19:40:21.789Z,11.90
2023-03-29T19:43:08.888Z,11.80
2023-03-29T19:45:55.313Z,11.80
2023-03-29T19:48:43.202Z,11.80
2023-03-29T19:51:29.528Z,11.80
2023-03-29T19:54:17.243Z,11.70
2023-03-29T19:57:04.224Z,11.60
2023-03-29T19:59:50.823Z,11.60
2023-03-29T20:02:37.438Z,11.50
2023-03-29T20:05:25.386Z,11.40
2023-03-29T20:08:12.196Z,11.30
2023-03-29T20:10:59.523Z,11.30
2023-03-29T20:13:46.514Z,11.20
2023-03-29T20:16:34.799Z,11.20
2023-03-29T20:19:24.678Z,11.20
2023-03-29T20:22:13.122Z,11.20
2023-03-29T20:24:59.970Z,11.10
2023-03-29T20:27:48.649Z,11.10
2023-03-29T20:30:36.230Z,11.10
2023-03-29T20:33:23.137Z,11.00
2023-03-29T20:36:09.985Z,11.10
2023-03-29T20:38:59.091Z,11.10
2023-03-29T20:41:47.428Z,11.00
2023-03-29T20:44:35.341Z,11.10
2023-03-29T20:47:22.643Z,11.10
2023-03-29T20:50:10.542Z,11.00
2023-03-29T20:53:03.662Z,11.00
2023-03-29T20:55:51.603Z,11.00
2023-03-29T20:58:42.096Z,11.00
2023-03-29T21:01:31.109Z,11.00
2023-03-29T21:04:19.100Z,11.00
2023-03-29T21:07:08.687Z,11.00
2023-03-29T21:09:55.204Z,11.10
2023-03-29T21:12:43.979Z,11.10
2023-03-29T21:15:31.224Z,11.20
2023-03-29T21:18:17.928Z,11.20
2023-03-29T21:21:06.862Z,11.20
2023-03-29T21:23:53.425Z,11.20
2023-03-29T21:26:39.840Z,11.30
2023-03-29T21:29:27.581Z,11.30
2023-03-29T21:32:14.204Z,11.40
2023-03-29T21:35:00.787Z,11.50
2023-03-29T21:37:47.240Z,11.50
2023-03-29T21:40:33.558Z,11.50
2023-03-29T21:43:20.178Z,11.50
2023-03-29T21:46:08.737Z,11.60
2023-03-29T21:48:55.280Z,11.50
2023-03-29T21:51:41.774Z,11.50
2023-03-29T21:54:28.629Z,11.50
2023-03-29T21:57:14.971Z,11.50
2023-03-29T22:00:01.313Z,11.50
2023-03-29T22:02:49.235Z,11.50
2023-03-29T22:05:36.642Z,11.40
2023-03-29T22:08:26.398Z,11.40
2023-03-29T22:11:15.519Z,11.40
2023-03-29T22:14:02.483Z,11.30
2023-03-29T22:16:48.971Z,11.30
2023-03-29T22:19:39.140Z,11.30
2023-03-29T22:22:26.374Z,11.40
2023-03-29T22:25:13.421Z,11.40
2023-03-29T22:28:00.427Z,11.50
2023-03-29T22:30:46.968Z,11.50
2023-03-29T22:33:33.893Z,11.50
2023-03-29T22:36:23.330Z,11.60
2023-03-29T22:39:11.187Z,11.50
2023-03-29T22:41:57.532Z,11.60
2023-03-29T22:44:44.226Z,11.60
2023-03-29T22:47:31.094Z,11.50
2023-03-29T22:50:17.638Z,11.50
2023-03-29T22:53:05.456Z,11.50
2023-03-29T22:55:52.161Z,11.50
2023-03-29T22:58:38.622Z,11.50
2023-03-29T23:01:25.519Z,11.40
2023-03-29T23:04:12.299Z,11.40
2023-03-29T23:07:00.172Z,11.40
2023-03-29T23:09:48.248Z,11.40
2023-03-29T23:12:36.118Z,11.50
2023-03-29T23:15:22.983Z,11.50
2023-03-29T23:18:13.082Z,11.50
2023-03-29T23:21:00.213Z,11.50
2023-03-29T23:23:46.885Z,11.50
2023-03-29T23:26:35.594Z,11.60
2023-03-29T23:29:22.666Z,11.70
2023-03-29T23:32:09.211Z,11.80
2023-03-29T23:34:56.256Z,11.80
2023-03-29T23:37:43.448Z,11.80
2023-03-29T23:40:29.933Z,11.70
2023-03-29T23:43:17.946Z,11.80
2023-03-29T23:46:06.922Z,11.80
2023-03-29T23:48:53.395Z,11.80
2023-03-29T23:51:42.589Z,11.80
2023-03-29T23:54:29.421Z,11.70
2023-03-29T23:57:16.024Z,11.70
